Time;durP1;ratioP1;P1;durP2;ratioP2;P2;SDS_P1;SDS_P2;PMS_P1;PMS_P2;Temp;Humidity;BMP_temperature;BMP_pressure;BME280_temperature;BME280_humidity;BME280_pressure;Samples;Min_cycle;Max_cycle;Signal;HPM_P1;HPM_P2
2022/12/31 00:00:38;;;;;;;0.60;0.60;;;;;;;12.88;71.83;95599.03;6125587;23;20494;-82
2022/12/31 00:03:05;;;;;;;0.50;0.50;;;;;;;12.95;71.97;95607.59;6125468;23;20187;-83
2022/12/31 00:05:32;;;;;;;0.80;0.50;;;;;;;12.96;71.46;95605.81;6125631;23;20814;-83
2022/12/31 00:07:58;;;;;;;0.47;0.47;;;;;;;12.99;71.05;95605.44;6124667;23;20191;-82
2022/12/31 00:10:25;;;;;;;0.50;0.50;;;;;;;13.00;70.71;95599.28;6125302;23;20179;-83
2022/12/31 00:12:53;;;;;;;0.50;0.50;;;;;;;13.03;70.75;95606.66;6125679;23;20810;-84
2022/12/31 00:15:19;;;;;;;0.43;0.43;;;;;;;13.07;70.44;95606.09;6125410;23;20194;-82
2022/12/31 00:17:45;;;;;;;0.30;0.30;;;;;;;13.12;70.57;95595.16;6124299;23;20183;-84
2022/12/31 00:20:12;;;;;;;0.30;0.30;;;;;;;13.11;70.25;95598.72;6124604;23;20175;-83
2022/12/31 00:22:38;;;;;;;0.30;0.30;;;;;;;13.12;70.30;95613.25;6126566;23;20175;-83
2022/12/31 00:25:06;;;;;;;0.40;0.40;;;;;;;13.17;70.20;95600.59;6125046;23;20206;-84
2022/12/31 00:27:33;;;;;;;0.40;0.40;;;;;;;13.17;70.58;95592.84;6125066;23;20175;-82
2022/12/31 00:30:00;;;;;;;0.40;0.40;;;;;;;13.20;70.75;95589.88;6125176;23;20186;-82
2022/12/31 00:32:28;;;;;;;0.30;0.30;;;;;;;13.21;70.84;95577.75;6124481;23;20182;-83
2022/12/31 00:34:54;;;;;;;0.30;0.30;;;;;;;13.26;70.46;95590.91;6125412;23;20199;-83
2022/12/31 00:37:21;;;;;;;0.52;0.32;;;;;;;13.26;70.31;95589.09;6125189;23;20167;-83
2022/12/31 00:39:47;;;;;;;0.40;0.40;;;;;;;13.29;69.68;95598.25;6124956;23;20183;-84
2022/12/31 00:42:13;;;;;;;0.40;0.40;;;;;;;13.31;69.79;95598.84;6124716;23;20179;-83
2022/12/31 00:44:40;;;;;;;0.73;0.50;;;;;;;13.33;69.38;95599.47;6124883;23;20530;-84
2022/12/31 00:47:07;;;;;;;0.40;0.40;;;;;;;13.38;69.47;95603.06;6124098;23;20186;-84
2022/12/31 00:49:34;;;;;;;0.40;0.40;;;;;;;13.40;69.11;95614.03;6125218;23;20183;-83
2022/12/31 00:52:00;;;;;;;0.30;0.30;;;;;;;13.39;69.12;95630.53;6125106;23;20238;-84
2022/12/31 00:54:27;;;;;;;0.83;0.50;;;;;;;13.39;69.21;95622.78;6125106;23;20255;-84
2022/12/31 00:56:53;;;;;;;0.40;0.40;;;;;;;13.39;69.09;95624.56;6124559;23;20186;-83
2022/12/31 00:59:19;;;;;;;0.50;0.50;;;;;;;13.46;68.98;95633.16;6124767;23;20186;-83
2022/12/31 01:01:46;;;;;;;0.33;0.33;;;;;;;13.48;69.07;95646.66;6124458;23;20258;-84
2022/12/31 01:04:16;;;;;;;0.30;0.30;;;;;;;13.50;69.17;95636.94;6125012;23;20653;-83
2022/12/31 01:06:43;;;;;;;0.57;0.50;;;;;;;13.54;69.29;95653.66;6124449;23;20190;-83
2022/12/31 01:09:10;;;;;;;0.30;0.30;;;;;;;13.59;69.18;95651.31;6125031;23;20176;-82
2022/12/31 01:11:37;;;;;;;0.40;0.40;;;;;;;13.60;69.37;95649.53;6124623;23;20491;-84
2022/12/31 01:14:06;;;;;;;0.50;0.47;;;;;;;13.64;69.44;95658.50;6125191;23;20207;-84
2022/12/31 01:16:35;;;;;;;0.30;0.30;;;;;;;13.62;69.60;95665.66;6124825;23;20183;-84
2022/12/31 01:19:03;;;;;;;0.20;0.20;;;;;;;13.69;69.08;95659.50;6125241;23;20180;-83
2022/12/31 01:21:32;;;;;;;0.52;0.40;;;;;;;13.67;69.44;95669.22;6124780;23;20729;-84
2022/12/31 01:23:59;;;;;;;0.35;0.35;;;;;;;13.69;69.39;95669.84;6124146;23;20176;-83
2022/12/31 01:26:26;;;;;;;0.40;0.40;;;;;;;13.70;69.40;95681.78;6124838;23;20258;-83
2022/12/31 01:28:53;;;;;;;0.40;0.40;;;;;;;13.72;69.51;95679.81;6124473;23;20180;-84
2022/12/31 01:31:20;;;;;;;2.65;0.40;;;;;;;13.74;69.67;95677.81;6123812;23;20623;-84
2022/12/31 01:33:47;;;;;;;0.97;0.50;;;;;;;13.77;69.53;95692.19;6124448;23;20195;-83
2022/12/31 01:36:17;;;;;;;0.70;0.40;;;;;;;13.78;69.26;95686.81;6124616;23;20199;-83
2022/12/31 01:38:45;;;;;;;0.40;0.40;;;;;;;13.77;69.60;95700.72;6123814;23;20178;-83
2022/12/31 01:41:13;;;;;;;0.40;0.40;;;;;;;13.77;69.73;95699.94;6124271;23;20186;-84
2022/12/31 01:43:45;;;;;;;0.50;0.50;;;;;;;13.79;69.62;95703.13;6123861;23;20176;-81
2022/12/31 01:46:13;;;;;;;0.40;0.40;;;;;;;13.82;69.67;95705.34;6122990;23;20199;-83
2022/12/31 01:48:40;;;;;;;0.50;0.50;;;;;;;13.81;69.67;95691.59;6123800;23;20183;-83
2022/12/31 01:51:09;;;;;;;0.40;0.40;;;;;;;13.81;69.74;95707.13;6123474;23;20172;-81
2022/12/31 01:53:36;;;;;;;0.40;0.40;;;;;;;13.82;69.36;95698.38;6123754;23;20222;-84
2022/12/31 01:56:06;;;;;;;0.40;0.40;;;;;;;13.85;69.55;95697.19;6123946;23;20530;-83
2022/12/31 01:58:38;;;;;;;0.50;0.50;;;;;;;13.79;69.28;95714.28;6123415;23;20187;-84
2022/12/31 02:01:07;;;;;;;0.40;0.40;;;;;;;13.78;69.72;95694.56;6124550;23;20168;-84
2022/12/31 02:03:34;;;;;;;0.40;0.40;;;;;;;13.81;69.42;95701.16;6124414;23;20176;-82
2022/12/31 02:06:06;;;;;;;0.50;0.43;;;;;;;13.85;69.33;95701.56;6123438;23;20199;-83
2022/12/31 02:08:34;;;;;;;0.40;0.40;;;;;;;13.84;69.66;95700.78;6123534;23;20163;-83
2022/12/31 02:11:00;;;;;;;0.55;0.40;;;;;;;13.86;69.19;95703.13;6123982;23;20176;-85
2022/12/31 02:13:28;;;;;;;0.50;0.50;;;;;;;13.83;69.00;95702.56;6123290;23;20223;-83
2022/12/31 02:16:00;;;;;;;0.40;0.40;;;;;;;13.81;68.90;95699.38;6123833;23;20191;-83
2022/12/31 02:18:34;;;;;;;0.80;0.40;;;;;;;13.82;68.96;95689.81;6123248;23;20219;-81
2022/12/31 02:21:21;;;;;;;0.40;0.40;;;;;;;13.79;68.91;95685.81;6123649;23;20163;-83
2022/12/31 02:24:09;;;;;;;0.40;0.40;;;;;;;13.84;68.85;95693.00;6123502;23;20160;-84
2022/12/31 02:26:53;;;;;;;0.40;0.40;;;;;;;13.83;68.46;95686.22;6124141;23;20498;-84
2022/12/31 02:29:58;;;;;;;0.40;0.40;;;;;;;13.86;68.62;95691.00;6123644;23;20171;-82
2022/12/31 02:32:32;;;;;;;0.32;0.32;;;;;;;13.91;68.23;95682.66;6090429;23;20186;-83
2022/12/31 02:35:04;;;;;;;0.40;0.40;;;;;;;13.93;67.94;95696.22;6123711;23;20234;-84
2022/12/31 02:37:33;;;;;;;0.40;0.40;;;;;;;13.94;67.65;95692.63;6123743;23;20164;-83
2022/12/31 02:40:00;;;;;;;1.75;0.45;;;;;;;13.92;67.66;95690.22;6124632;23;20187;-84
2022/12/31 02:42:27;;;;;;;0.40;0.40;;;;;;;13.93;67.74;95696.22;6124443;23;20189;-82
2022/12/31 02:44:53;;;;;;;0.50;0.50;;;;;;;13.96;67.56;95695.81;6124812;23;20560;-82
2022/12/31 02:47:30;;;;;;;0.43;0.43;;;;;;;14.02;67.30;95698.44;6123610;23;20175;-84
2022/12/31 02:50:13;;;;;;;0.40;0.40;;;;;;;14.05;67.02;95694.63;6124353;23;20379;-84
2022/12/31 02:52:50;;;;;;;0.32;0.32;;;;;;;14.03;67.02;95699.25;6123681;23;20163;-83
2022/12/31 02:55:23;;;;;;;0.40;0.40;;;;;;;14.02;66.85;95701.03;6123519;23;20210;-84
2022/12/31 02:57:55;;;;;;;0.65;0.40;;;;;;;14.02;67.00;95705.41;6125643;23;20167;-82
2022/12/31 03:03:08;;;;;;;0.60;0.60;;;;;;;14.09;66.68;95696.66;6126053;23;20514;-82
2022/12/31 03:05:39;;;;;;;0.40;0.40;;;;;;;14.14;66.64;95706.44;6125903;23;20203;-83
2022/12/31 03:08:05;;;;;;;0.50;0.50;;;;;;;14.15;66.32;95701.06;6124667;23;20242;-83
2022/12/31 03:10:32;;;;;;;0.50;0.50;;;;;;;14.13;66.53;95700.44;6126011;23;20240;-84
2022/12/31 03:12:57;;;;;;;0.30;0.30;;;;;;;14.14;66.37;95707.22;6125703;23;20869;-83
2022/12/31 03:15:26;;;;;;;0.40;0.40;;;;;;;14.15;66.34;95702.84;6125065;23;20210;-84
2022/12/31 03:17:56;;;;;;;0.40;0.40;;;;;;;14.17;66.21;95706.03;6125319;23;20187;-83
2022/12/31 03:23:14;;;;;;;0.43;0.40;;;;;;;14.22;65.63;95723.59;6126125;23;20163;-83
2022/12/31 03:25:40;;;;;;;0.38;0.38;;;;;;;14.30;65.21;95719.00;6125739;23;20194;-82
2022/12/31 03:28:08;;;;;;;0.43;0.43;;;;;;;14.32;65.52;95727.38;6126202;23;20608;-84
2022/12/31 03:30:36;;;;;;;0.28;0.28;;;;;;;14.30;65.42;95724.19;6126475;23;20175;-83
2022/12/31 03:33:04;;;;;;;0.40;0.40;;;;;;;14.31;65.54;95730.97;6126013;23;20179;-83
2022/12/31 03:35:34;;;;;;;0.40;0.40;;;;;;;14.29;65.31;95737.34;6126737;23;20688;-83
2022/12/31 03:38:01;;;;;;;0.40;0.40;;;;;;;14.32;65.46;95740.34;6125590;23;20164;-82
2022/12/31 03:40:29;;;;;;;0.35;0.35;;;;;;;14.30;64.84;95742.31;6126161;23;20183;-83
2022/12/31 03:42:56;;;;;;;0.40;0.40;;;;;;;14.35;64.73;95754.69;6126508;23;20183;-83
2022/12/31 03:45:23;;;;;;;1.08;0.60;;;;;;;14.40;64.79;95754.91;6126302;23;20251;-84
2022/12/31 03:47:50;;;;;;;0.50;0.50;;;;;;;14.41;64.33;95746.97;6124166;23;20864;-83
2022/12/31 03:50:18;;;;;;;0.47;0.47;;;;;;;14.46;64.32;95751.56;6125777;23;20198;-83
2022/12/31 03:52:46;;;;;;;0.50;0.50;;;;;;;14.47;64.10;95746.19;6125484;23;20176;-84
2022/12/31 03:55:13;;;;;;;0.43;0.43;;;;;;;14.44;63.87;95754.34;6126276;23;20207;-84
2022/12/31 03:57:40;;;;;;;0.47;0.47;;;;;;;14.48;63.83;95742.59;6125648;23;20206;-84
2022/12/31 04:00:09;;;;;;;0.35;0.32;;;;;;;14.51;63.44;95746.59;6126802;23;20532;-84
2022/12/31 04:02:36;;;;;;;0.50;0.40;;;;;;;14.53;63.48;95742.00;6125495;23;20183;-82
2022/12/31 04:05:02;;;;;;;0.43;0.43;;;;;;;14.55;63.64;95750.41;6125840;23;20195;-83
2022/12/31 04:07:29;;;;;;;0.38;0.38;;;;;;;14.57;63.50;95750.19;6125698;23;20259;-84
2022/12/31 04:09:56;;;;;;;0.45;0.45;;;;;;;14.61;63.66;95756.59;6126079;23;20179;-84
2022/12/31 04:12:23;;;;;;;0.40;0.40;;;;;;;14.61;63.41;95748.81;6125629;23;20184;-84
2022/12/31 04:14:49;;;;;;;0.32;0.32;;;;;;;14.62;63.38;95755.59;6126528;23;20207;-83
2022/12/31 04:17:16;;;;;;;0.40;0.40;;;;;;;14.66;63.08;95764.53;6125938;23;20183;-84
2022/12/31 04:19:42;;;;;;;0.75;0.50;;;;;;;14.68;63.28;95763.34;6126865;23;20184;-83
2022/12/31 04:22:09;;;;;;;0.40;0.40;;;;;;;14.68;62.99;95768.53;6126369;23;20179;-83
2022/12/31 04:24:35;;;;;;;0.40;0.40;;;;;;;14.71;62.66;95775.13;6125488;23;20198;-84
2022/12/31 04:27:03;;;;;;;0.50;0.50;;;;;;;14.76;62.74;95783.13;6126212;23;20180;-83
2022/12/31 04:29:29;;;;;;;0.30;0.30;;;;;;;14.76;62.58;95781.31;6125751;23;20818;-84
2022/12/31 04:31:56;;;;;;;0.50;0.50;;;;;;;14.77;62.75;95787.31;6125246;23;20214;-82
2022/12/31 04:34:22;;;;;;;0.40;0.40;;;;;;;14.80;62.84;95789.50;6125169;23;20199;-82
2022/12/31 04:36:49;;;;;;;0.40;0.40;;;;;;;14.78;62.15;95778.53;6125311;23;20183;-83
2022/12/31 04:39:15;;;;;;;0.60;0.60;;;;;;;14.79;62.18;95788.72;6125202;23;20669;-84
2022/12/31 04:41:41;;;;;;;0.38;0.38;;;;;;;14.79;62.13;95787.91;6125828;23;20176;-83
2022/12/31 04:44:09;;;;;;;0.75;0.40;;;;;;;14.79;62.10;95791.31;6125645;23;20175;-84
2022/12/31 04:46:36;;;;;;;1.10;0.30;;;;;;;14.83;62.23;95789.91;6124529;23;20231;-83
2022/12/31 04:49:02;;;;;;;0.43;0.43;;;;;;;14.78;62.00;95786.31;6125683;23;20179;-84
2022/12/31 04:51:30;;;;;;;0.45;0.40;;;;;;;14.80;62.70;95795.50;6125797;23;20175;-84
2022/12/31 04:53:57;;;;;;;0.40;0.40;;;;;;;14.82;62.34;95792.69;6125316;23;20203;-83
2022/12/31 04:56:24;;;;;;;0.40;0.40;;;;;;;14.81;62.02;95791.91;6125842;23;20453;-83
2022/12/31 04:58:50;;;;;;;0.30;0.30;;;;;;;14.86;62.08;95802.47;6124844;23;20183;-83
2022/12/31 05:01:18;;;;;;;0.30;0.30;;;;;;;14.87;62.00;95792.91;6126566;23;20242;-83
2022/12/31 05:03:45;;;;;;;0.40;0.40;;;;;;;14.91;62.32;95775.16;6128185;23;20183;-84
2022/12/31 05:06:13;;;;;;;0.35;0.35;;;;;;;14.88;62.30;95786.72;6128728;23;20213;-84
2022/12/31 05:08:40;;;;;;;0.30;0.30;;;;;;;14.90;62.32;95796.88;6128489;23;20160;-84
2022/12/31 05:11:06;;;;;;;0.40;0.40;;;;;;;14.93;62.25;95792.13;6129053;23;20186;-83
2022/12/31 05:13:33;;;;;;;0.30;0.30;;;;;;;14.95;62.17;95792.72;6129804;23;20180;-84
2022/12/31 05:16:00;;;;;;;0.70;0.40;;;;;;;14.95;61.88;95795.31;6127755;23;20250;-85
2022/12/31 05:18:28;;;;;;;0.50;0.50;;;;;;;14.97;62.26;95795.13;6128987;23;20180;-83
2022/12/31 05:20:54;;;;;;;0.75;0.60;;;;;;;14.97;62.29;95797.72;6130429;23;20172;-84
2022/12/31 05:23:21;;;;;;;0.40;0.40;;;;;;;14.97;62.46;95800.31;6130013;23;20183;-84
2022/12/31 05:25:48;;;;;;;0.32;0.32;;;;;;;14.94;62.34;95801.50;6130311;23;20206;-84
2022/12/31 05:28:15;;;;;;;0.40;0.40;;;;;;;14.95;62.31;95803.09;6130238;23;20179;-83
2022/12/31 05:30:42;;;;;;;0.40;0.40;;;;;;;14.98;62.24;95815.66;6130994;23;20180;-84
2022/12/31 05:33:09;;;;;;;0.40;0.40;;;;;;;15.01;62.35;95811.88;6130316;23;20180;-84
2022/12/31 05:35:36;;;;;;;0.40;0.40;;;;;;;15.01;62.10;95817.84;6130885;23;20211;-84
2022/12/31 05:38:03;;;;;;;0.30;0.30;;;;;;;15.00;62.18;95823.25;6129067;23;20179;-84
2022/12/31 05:40:29;;;;;;;0.40;0.40;;;;;;;14.98;62.24;95817.44;6129196;23;20234;-83
2022/12/31 05:42:55;;;;;;;0.40;0.40;;;;;;;15.00;62.05;95805.88;6130109;23;20717;-84
2022/12/31 05:45:22;;;;;;;0.40;0.40;;;;;;;14.98;62.41;95807.88;6128650;23;20227;-84
2022/12/31 05:47:48;;;;;;;0.43;0.43;;;;;;;14.94;62.35;95811.84;6127324;23;20185;-83
2022/12/31 05:50:15;;;;;;;1.35;0.95;;;;;;;14.92;62.66;95807.88;6129372;23;20561;-84
2022/12/31 05:52:44;;;;;;;0.40;0.40;;;;;;;14.88;62.41;95804.06;6128758;23;20234;-84
2022/12/31 05:55:12;;;;;;;0.50;0.50;;;;;;;14.91;62.78;95796.69;6129297;23;20210;-85
2022/12/31 05:57:39;;;;;;;0.50;0.50;;;;;;;14.92;62.78;95790.50;6128676;23;20211;-84
2022/12/31 06:00:07;;;;;;;0.50;0.50;;;;;;;14.89;62.75;95787.50;6128475;23;20243;-84
2022/12/31 06:02:34;;;;;;;0.50;0.50;;;;;;;14.86;62.82;95801.66;6127461;23;20925;-84
2022/12/31 06:05:00;;;;;;;0.65;0.50;;;;;;;14.85;63.07;95803.47;6127783;23;20200;-83
2022/12/31 06:07:26;;;;;;;0.47;0.47;;;;;;;14.85;62.90;95806.06;6127652;23;20202;-83
2022/12/31 06:09:54;;;;;;;0.43;0.43;;;;;;;14.79;63.10;95806.84;6127775;23;20179;-84
2022/12/31 06:12:21;;;;;;;0.60;0.57;;;;;;;14.74;63.38;95808.44;6127311;23;20557;-84
2022/12/31 06:14:47;;;;;;;0.43;0.43;;;;;;;14.74;63.36;95814.41;6127160;23;20206;-84
2022/12/31 06:17:13;;;;;;;0.43;0.43;;;;;;;14.76;63.37;95819.41;6126547;23;20183;-84
2022/12/31 06:19:40;;;;;;;0.50;0.50;;;;;;;14.73;63.38;95823.19;6126276;23;20179;-84
2022/12/31 06:22:06;;;;;;;0.43;0.43;;;;;;;14.69;63.85;95824.56;6128128;23;20190;-84
2022/12/31 06:24:32;;;;;;;0.40;0.40;;;;;;;14.73;63.55;95824.97;6127127;23;20199;-83
2022/12/31 06:27:00;;;;;;;0.50;0.50;;;;;;;14.72;63.65;95834.53;6127779;23;20183;-84
2022/12/31 06:29:27;;;;;;;0.55;0.55;;;;;;;14.73;63.38;95832.75;6128398;23;20881;-84
2022/12/31 06:31:53;;;;;;;0.40;0.40;;;;;;;14.70;63.58;95830.56;6126056;23;20901;-83
2022/12/31 06:34:19;;;;;;;0.85;0.60;;;;;;;14.66;63.49;95845.69;6129353;23;20238;-84
2022/12/31 06:36:46;;;;;;;0.57;0.57;;;;;;;14.67;63.77;95849.06;6129932;23;20186;-84
2022/12/31 06:39:12;;;;;;;0.60;0.60;;;;;;;14.61;63.83;95847.28;6128684;23;20175;-84
2022/12/31 06:41:39;;;;;;;0.50;0.50;;;;;;;14.60;63.71;95851.66;6128726;23;20183;-84
2022/12/31 06:44:07;;;;;;;0.60;0.60;;;;;;;14.58;63.63;95856.25;6129890;23;20185;-83
2022/12/31 06:46:33;;;;;;;0.55;0.55;;;;;;;14.61;63.66;95853.28;6126639;23;20200;-85
2022/12/31 06:48:59;;;;;;;0.60;0.60;;;;;;;14.63;63.46;95850.47;6125206;23;20183;-84
2022/12/31 06:51:26;;;;;;;1.33;0.70;;;;;;;14.63;63.53;95845.28;6125907;23;20179;-84
2022/12/31 06:53:52;;;;;;;0.50;0.50;;;;;;;14.63;63.92;95853.06;6127313;23;20164;-83
2022/12/31 06:56:21;;;;;;;0.45;0.45;;;;;;;14.61;64.38;95848.09;6128383;23;20200;-85
2022/12/31 06:58:49;;;;;;;0.80;0.60;;;;;;;14.56;64.50;95847.88;6128923;23;20343;-85
2022/12/31 07:01:48;;;;;;;0.50;0.50;;;;;;;14.55;64.51;95846.25;6128777;23;20179;-85
2022/12/31 07:04:38;;;;;;;0.50;0.50;;;;;;;14.55;64.65;95848.84;6105367;23;20175;-84
2022/12/31 07:07:08;;;;;;;0.50;0.50;;;;;;;14.56;64.31;95853.03;6128112;23;20729;-83
2022/12/31 07:09:42;;;;;;;0.40;0.40;;;;;;;14.55;64.16;95871.38;6128053;23;20270;-83
2022/12/31 07:12:20;;;;;;;0.50;0.50;;;;;;;14.54;64.06;95870.56;6128332;23;20163;-84
2022/12/31 07:14:53;;;;;;;0.40;0.40;;;;;;;14.52;63.89;95870.78;6128459;23;20206;-83
2022/12/31 07:17:27;;;;;;;0.60;0.60;;;;;;;14.56;63.72;95870.38;6128465;23;20164;-85
2022/12/31 07:20:02;;;;;;;0.40;0.40;;;;;;;14.57;63.66;95874.56;6128565;23;20163;-84
2022/12/31 07:22:29;;;;;;;0.50;0.50;;;;;;;14.59;63.53;95865.63;6128407;23;20214;-84
2022/12/31 07:24:56;;;;;;;0.60;0.60;;;;;;;14.63;63.55;95866.00;6128201;23;20198;-84
2022/12/31 07:27:47;;;;;;;0.40;0.40;;;;;;;14.61;63.07;95875.78;6128077;23;20176;-84
2022/12/31 07:30:17;;;;;;;0.50;0.50;;;;;;;14.62;62.89;95877.41;6128377;23;20603;-85
2022/12/31 07:33:13;;;;;;;0.43;0.43;;;;;;;14.60;62.79;95877.59;6127614;23;20179;-84
2022/12/31 07:35:48;;;;;;;0.50;0.50;;;;;;;14.61;62.94;95881.78;6127168;23;20207;-84
2022/12/31 07:38:24;;;;;;;0.57;0.57;;;;;;;14.63;62.94;95881.56;6128015;23;20163;-84
2022/12/31 07:40:59;;;;;;;0.47;0.47;;;;;;;14.66;62.84;95887.16;6128807;23;20171;-83
2022/12/31 07:43:32;;;;;;;0.80;0.60;;;;;;;14.67;62.81;95893.94;6127170;23;20182;-84
2022/12/31 07:46:07;;;;;;;0.60;0.60;;;;;;;14.68;62.64;95892.94;6125327;23;20188;-84
2022/12/31 07:48:35;;;;;;;0.60;0.60;;;;;;;14.73;62.74;95894.97;6127053;23;20179;-84
2022/12/31 07:51:02;;;;;;;0.68;0.68;;;;;;;14.76;62.62;95903.16;6128295;23;20187;-83
2022/12/31 07:53:29;;;;;;;0.60;0.60;;;;;;;14.78;62.42;95900.38;6128810;23;20517;-85
2022/12/31 07:55:59;;;;;;;0.60;0.60;;;;;;;14.78;62.05;95911.53;6126616;23;20206;-83
2022/12/31 07:58:32;;;;;;;0.70;0.70;;;;;;;14.80;61.88;95908.75;6126791;23;20565;-84
2022/12/31 08:01:00;;;;;;;0.63;0.50;;;;;;;14.79;61.81;95913.13;6128207;23;20160;-84
2022/12/31 08:03:47;;;;;;;0.88;0.60;;;;;;;14.84;61.70;95920.31;6127636;23;20180;-84
2022/12/31 08:06:23;;;;;;;0.68;0.68;;;;;;;14.82;61.54;95914.53;6128513;23;20589;-85
2022/12/31 08:08:58;;;;;;;1.85;0.70;;;;;;;14.81;61.74;95923.31;6127975;23;20288;-84
2022/12/31 08:11:30;;;;;;;0.70;0.70;;;;;;;14.81;61.26;95925.91;6128314;23;20170;-83
2022/12/31 08:14:01;;;;;;;0.68;0.68;;;;;;;14.84;61.14;95931.47;6128189;23;20640;-84
2022/12/31 08:16:28;;;;;;;0.75;0.70;;;;;;;14.84;61.29;95930.69;6128621;23;20860;-85
2022/12/31 08:18:57;;;;;;;1.65;0.70;;;;;;;14.92;60.94;95934.91;6128064;23;20176;-82
2022/12/31 08:21:35;;;;;;;0.93;0.63;;;;;;;14.96;60.60;95930.94;6128536;23;20178;-84
2022/12/31 08:24:09;;;;;;;0.65;0.65;;;;;;;14.95;60.44;95927.53;6127989;23;20159;-84
2022/12/31 08:26:47;;;;;;;0.77;0.70;;;;;;;14.99;60.39;95927.97;6128181;23;20194;-83
2022/12/31 08:29:33;;;;;;;1.10;1.00;;;;;;;15.02;59.81;95927.53;6129459;23;20160;-84
2022/12/31 08:32:10;;;;;;;1.30;1.20;;;;;;;15.06;59.99;95928.75;6128789;23;20191;-84
2022/12/31 08:34:46;;;;;;;0.90;0.90;;;;;;;15.12;59.50;95926.19;6129134;23;20541;-84
2022/12/31 08:37:19;;;;;;;0.77;0.77;;;;;;;15.14;59.33;95926.00;6130826;23;20170;-84
2022/12/31 08:40:00;;;;;;;0.77;0.50;;;;;;;15.15;58.75;95919.81;6129510;23;20164;-84
2022/12/31 08:42:35;;;;;;;0.60;0.60;;;;;;;15.17;58.71;95917.81;6128653;23;20224;-83
2022/12/31 08:45:12;;;;;;;0.98;0.70;;;;;;;15.37;58.37;95918.66;6129513;23;20202;-84
2022/12/31 08:47:46;;;;;;;0.70;0.70;;;;;;;15.61;57.48;95912.09;6127083;23;20218;-85
2022/12/31 08:50:17;;;;;;;2.97;2.10;;;;;;;15.89;56.45;95914.50;6130097;23;20160;-83
2022/12/31 08:52:45;;;;;;;0.70;0.70;;;;;;;16.12;55.18;95898.50;6129296;23;20182;-84
2022/12/31 08:55:18;;;;;;;1.00;0.60;;;;;;;16.38;54.52;95908.81;6129043;23;20204;-84
2022/12/31 08:57:56;;;;;;;0.60;0.60;;;;;;;16.66;54.85;95905.97;6129061;23;20605;-84
2022/12/31 09:00:23;;;;;;;0.60;0.60;;;;;;;16.97;53.89;95914.81;6129666;23;20624;-84
2022/12/31 09:03:05;;;;;;;1.40;0.70;;;;;;;17.21;52.90;95919.28;6129202;23;20238;-84
2022/12/31 09:05:39;;;;;;;0.60;0.60;;;;;;;17.31;52.25;95922.25;6128742;23;20191;-84
2022/12/31 09:08:18;;;;;;;0.50;0.50;;;;;;;17.45;51.85;95923.75;6129571;23;20187;-85
2022/12/31 09:10:53;;;;;;;0.52;0.52;;;;;;;17.40;51.61;95926.16;6129322;23;20175;-84
2022/12/31 09:13:27;;;;;;;0.93;0.60;;;;;;;17.06;51.85;95926.59;6129555;23;20195;-85
2022/12/31 09:16:01;;;;;;;0.50;0.50;;;;;;;16.93;52.64;95924.84;6128931;23;20506;-85
2022/12/31 09:18:28;;;;;;;0.77;0.63;;;;;;;16.82;53.02;95935.88;6129411;23;20163;-83
2022/12/31 09:20:57;;;;;;;0.50;0.50;;;;;;;16.72;52.82;95938.94;6129245;23;20180;-83
2022/12/31 09:23:23;;;;;;;0.60;0.60;;;;;;;16.65;53.10;95943.34;6128350;23;20175;-84
2022/12/31 09:26:00;;;;;;;2.00;0.80;;;;;;;16.59;53.56;95941.53;6125796;23;20558;-85
2022/12/31 09:28:42;;;;;;;5.68;1.83;;;;;;;16.63;57.88;95932.38;6119581;23;20164;-86
2022/12/31 09:31:13;;;;;;;3.40;1.10;;;;;;;16.66;56.69;95931.97;6121096;23;20168;-86
2022/12/31 09:33:47;;;;;;;1.83;0.80;;;;;;;16.67;55.85;95925.75;6120591;23;20187;-85
2022/12/31 09:36:21;;;;;;;1.15;0.85;;;;;;;16.71;55.61;95933.94;6121503;23;20202;-83
2022/12/31 09:38:52;;;;;;;0.88;0.75;;;;;;;16.70;53.85;95924.53;6125210;23;20210;-82
2022/12/31 09:41:40;;;;;;;0.60;0.60;;;;;;;16.64;54.07;95928.75;6126308;23;20164;-84
2022/12/31 09:44:42;;;;;;;1.00;0.70;;;;;;;16.58;53.68;95925.13;6126408;23;20167;-85
2022/12/31 09:47:32;;;;;;;1.48;0.95;;;;;;;16.61;53.79;95921.34;6077913;23;20190;-85
2022/12/31 09:50:22;;;;;;;0.60;0.60;;;;;;;16.63;53.25;95919.38;6126416;23;20167;-84
2022/12/31 09:53:12;;;;;;;0.70;0.70;;;;;;;16.83;52.85;95927.88;6126343;23;20164;-84
2022/12/31 09:55:48;;;;;;;0.73;0.70;;;;;;;17.13;52.26;95911.72;6121073;23;20207;-85
2022/12/31 09:58:27;;;;;;;0.80;0.80;;;;;;;17.33;51.55;95915.00;6121003;23;20164;-85
2022/12/31 10:00:58;;;;;;;0.75;0.75;;;;;;;17.71;51.13;95912.34;6124057;23;20170;-83
2022/12/31 10:03:41;;;;;;;0.80;0.80;;;;;;;18.11;50.48;95920.63;6127325;23;20170;-85
2022/12/31 10:06:21;;;;;;;0.85;0.77;;;;;;;18.37;49.89;95913.56;6129447;23;20207;-84
2022/12/31 10:09:16;;;;;;;1.63;0.80;;;;;;;18.35;49.43;95915.56;6130442;23;20156;-85
2022/12/31 10:12:05;;;;;;;0.82;0.70;;;;;;;18.33;49.34;95912.38;6131234;23;20174;-83
2022/12/31 10:14:56;;;;;;;0.57;0.57;;;;;;;18.57;49.07;95912.31;6130714;23;20525;-85
2022/12/31 10:17:40;;;;;;;0.70;0.70;;;;;;;18.70;49.02;95906.19;6130890;23;20233;-83
2022/12/31 10:20:33;;;;;;;0.90;0.60;;;;;;;18.56;48.35;95915.16;6130475;23;20182;-85
2022/12/31 10:23:18;;;;;;;0.85;0.70;;;;;;;18.63;48.05;95902.88;6096046;23;20179;-84
2022/12/31 10:26:16;;;;;;;0.60;0.60;;;;;;;18.55;47.93;95900.50;6131760;23;20191;-84
2022/12/31 10:28:53;;;;;;;1.10;0.60;;;;;;;18.40;48.66;95898.28;6129531;23;20187;-84
2022/12/31 10:31:38;;;;;;;1.75;0.60;;;;;;;18.26;48.57;95892.41;6131859;23;20164;-84
2022/12/31 10:34:14;;;;;;;0.70;0.68;;;;;;;18.19;49.19;95901.31;6132224;23;20163;-85
2022/12/31 10:36:57;;;;;;;0.60;0.60;;;;;;;18.10;49.25;95899.97;6131488;23;20427;-84
2022/12/31 10:39:36;;;;;;;4.85;4.30;;;;;;;18.00;49.41;95892.66;6131071;23;20166;-85
2022/12/31 10:42:42;;;;;;;1.25;1.00;;;;;;;17.88;49.22;95895.19;6130696;23;20222;-84
2022/12/31 10:45:59;;;;;;;0.65;0.65;;;;;;;17.83;49.78;95894.25;6106036;23;20203;-85
2022/12/31 10:49:04;;;;;;;0.73;0.65;;;;;;;17.74;49.63;95901.50;6040681;23;20189;-84
2022/12/31 10:52:01;;;;;;;0.60;0.60;;;;;;;17.67;49.86;95899.97;6040869;23;20165;-84
2022/12/31 10:54:48;;;;;;;0.73;0.70;;;;;;;17.57;49.76;95893.41;6121660;23;20186;-84
2022/12/31 10:57:45;;;;;;;1.35;0.60;;;;;;;17.51;49.72;95902.06;6129768;23;20247;-84
2022/12/31 11:00:15;;;;;;;1.05;0.70;;;;;;;17.53;50.07;95894.03;6131257;23;20191;-85
2022/12/31 11:03:31;;;;;;;0.65;0.65;;;;;;;17.53;50.04;95892.22;6130170;23;20179;-84
2022/12/31 11:06:52;;;;;;;0.57;0.57;;;;;;;17.51;50.15;95888.25;6131033;23;20214;-84
2022/12/31 11:09:53;;;;;;;0.60;0.60;;;;;;;17.47;50.10;95884.47;6094464;23;20234;-83
2022/12/31 11:12:42;;;;;;;0.60;0.60;;;;;;;17.50;49.92;95884.88;6130403;23;20164;-83
2022/12/31 11:15:38;;;;;;;0.70;0.70;;;;;;;17.48;49.91;95878.28;6130180;23;20677;-84
2022/12/31 11:18:19;;;;;;;0.80;0.80;;;;;;;17.49;49.77;95879.88;6126103;23;20164;-85
2022/12/31 11:21:09;;;;;;;0.70;0.70;;;;;;;17.52;50.06;95880.22;6126863;23;20163;-84
2022/12/31 11:23:45;;;;;;;1.17;0.80;;;;;;;17.56;50.17;95880.59;6128483;23;20168;-84
2022/12/31 11:26:22;;;;;;;2.00;0.68;;;;;;;17.59;50.12;95877.56;6128000;23;20208;-85
2022/12/31 11:29:06;;;;;;;0.93;0.93;;;;;;;17.64;50.51;95877.75;6128392;23;20230;-84
2022/12/31 11:31:47;;;;;;;0.60;0.60;;;;;;;17.69;50.03;95872.72;6128459;23;20191;-85
2022/12/31 11:34:39;;;;;;;0.93;0.77;;;;;;;17.74;49.72;95866.84;6128677;23;20167;-84
2022/12/31 11:37:23;;;;;;;0.52;0.52;;;;;;;17.80;49.81;95869.41;6129344;23;20808;-84
2022/12/31 11:40:01;;;;;;;2.50;0.68;;;;;;;17.83;49.94;95866.38;6127673;23;20495;-83
2022/12/31 11:42:45;;;;;;;0.95;0.80;;;;;;;17.89;50.05;95859.53;6128119;23;20179;-85
2022/12/31 11:45:15;;;;;;;0.98;0.68;;;;;;;17.97;50.26;95858.44;6128487;23;20195;-85
2022/12/31 11:47:54;;;;;;;1.00;0.80;;;;;;;18.01;49.93;95854.38;6126966;23;20434;-84
2022/12/31 11:50:29;;;;;;;0.77;0.77;;;;;;;18.07;49.68;95843.09;6128201;23;20167;-84
2022/12/31 11:53:06;;;;;;;0.55;0.55;;;;;;;18.16;49.29;95842.59;6128861;23;20160;-84
2022/12/31 11:55:55;;;;;;;0.80;0.80;;;;;;;18.34;48.91;95833.97;6127589;23;20206;-84
2022/12/31 11:58:27;;;;;;;0.75;0.75;;;;;;;18.48;49.31;95830.19;6129466;23;20171;-84
2022/12/31 12:00:57;;;;;;;0.70;0.70;;;;;;;18.55;49.05;95830.09;6127719;23;20168;-86
2022/12/31 12:03:24;;;;;;;0.80;0.80;;;;;;;18.54;48.66;95825.91;6127974;23;20176;-85
2022/12/31 12:05:51;;;;;;;1.10;0.98;;;;;;;18.53;48.47;95819.88;6128650;23;20203;-84